sensor_id;sensor_type;location;lat;lon;timestamp;P1;durP1;ratioP1;P2;durP2;ratioP2
45136;SDS011;30894;51.740;19.498;2022-07-23T00:00:33;11.45;;;4.97;;
45136;SDS011;30894;51.740;19.498;2022-07-23T00:03:03;8.60;;;5.57;;
45136;SDS011;30894;51.740;19.498;2022-07-23T00:05:29;8.40;;;4.43;;
45136;SDS011;30894;51.740;19.498;2022-07-23T00:07:55;7.90;;;5.30;;
45136;SDS011;30894;51.740;19.498;2022-07-23T00:10:21;9.50;;;5.57;;
45136;SDS011;30894;51.740;19.498;2022-07-23T00:12:47;9.02;;;4.57;;
45136;SDS011;30894;51.740;19.498;2022-07-23T00:15:13;7.90;;;4.63;;
45136;SDS011;30894;51.740;19.498;2022-07-23T00:17:39;11.23;;;4.63;;
45136;SDS011;30894;51.740;19.498;2022-07-23T00:20:05;10.35;;;4.80;;
45136;SDS011;30894;51.740;19.498;2022-07-23T00:22:32;11.00;;;4.78;;
45136;SDS011;30894;51.740;19.498;2022-07-23T00:24:58;7.05;;;5.03;;
45136;SDS011;30894;51.740;19.498;2022-07-23T00:27:24;9.93;;;4.72;;
45136;SDS011;30894;51.740;19.498;2022-07-23T00:29:50;8.00;;;4.82;;
45136;SDS011;30894;51.740;19.498;2022-07-23T00:32:16;8.85;;;4.82;;
45136;SDS011;30894;51.740;19.498;2022-07-23T00:34:42;9.30;;;5.28;;
45136;SDS011;30894;51.740;19.498;2022-07-23T00:37:08;10.73;;;5.70;;
45136;SDS011;30894;51.740;19.498;2022-07-23T00:39:34;8.27;;;5.07;;
45136;SDS011;30894;51.740;19.498;2022-07-23T00:42:00;8.40;;;5.30;;
45136;SDS011;30894;51.740;19.498;2022-07-23T00:44:27;11.27;;;5.68;;
45136;SDS011;30894;51.740;19.498;2022-07-23T00:46:55;9.10;;;5.22;;
45136;SDS011;30894;51.740;19.498;2022-07-23T00:49:27;11.23;;;5.40;;
45136;SDS011;30894;51.740;19.498;2022-07-23T00:51:55;10.48;;;5.32;;
45136;SDS011;30894;51.740;19.498;2022-07-23T00:54:23;9.02;;;5.55;;
45136;SDS011;30894;51.740;19.498;2022-07-23T00:56:51;13.00;;;6.22;;
45136;SDS011;30894;51.740;19.498;2022-07-23T00:59:18;9.20;;;5.20;;
45136;SDS011;30894;51.740;19.498;2022-07-23T01:01:45;9.00;;;5.63;;
45136;SDS011;30894;51.740;19.498;2022-07-23T01:04:14;13.77;;;6.03;;
45136;SDS011;30894;51.740;19.498;2022-07-23T01:06:41;11.55;;;5.82;;
45136;SDS011;30894;51.740;19.498;2022-07-23T01:09:10;9.68;;;5.50;;
45136;SDS011;30894;51.740;19.498;2022-07-23T01:11:37;11.93;;;5.20;;
45136;SDS011;30894;51.740;19.498;2022-07-23T01:14:16;10.98;;;5.15;;
45136;SDS011;30894;51.740;19.498;2022-07-23T01:16:45;8.45;;;4.80;;
45136;SDS011;30894;51.740;19.498;2022-07-23T01:19:13;13.07;;;5.65;;
45136;SDS011;30894;51.740;19.498;2022-07-23T01:21:41;10.52;;;5.05;;
45136;SDS011;30894;51.740;19.498;2022-07-23T01:24:16;9.48;;;5.63;;
45136;SDS011;30894;51.740;19.498;2022-07-23T01:26:46;8.77;;;5.65;;
45136;SDS011;30894;51.740;19.498;2022-07-23T01:29:14;9.40;;;5.75;;
45136;SDS011;30894;51.740;19.498;2022-07-23T01:31:40;8.93;;;5.47;;
45136;SDS011;30894;51.740;19.498;2022-07-23T01:34:07;9.90;;;5.43;;
45136;SDS011;30894;51.740;19.498;2022-07-23T01:36:34;9.45;;;5.60;;
45136;SDS011;30894;51.740;19.498;2022-07-23T01:39:01;12.00;;;5.70;;
45136;SDS011;30894;51.740;19.498;2022-07-23T01:41:29;15.23;;;5.75;;
45136;SDS011;30894;51.740;19.498;2022-07-23T01:43:55;15.80;;;6.00;;
45136;SDS011;30894;51.740;19.498;2022-07-23T01:46:21;9.48;;;5.63;;
45136;SDS011;30894;51.740;19.498;2022-07-23T01:48:47;9.73;;;5.50;;
45136;SDS011;30894;51.740;19.498;2022-07-23T01:51:14;8.73;;;5.10;;
45136;SDS011;30894;51.740;19.498;2022-07-23T01:53:40;9.77;;;5.88;;
45136;SDS011;30894;51.740;19.498;2022-07-23T01:56:06;8.63;;;5.40;;
45136;SDS011;30894;51.740;19.498;2022-07-23T01:58:33;12.98;;;5.82;;
45136;SDS011;30894;51.740;19.498;2022-07-23T02:00:59;12.48;;;5.57;;
45136;SDS011;30894;51.740;19.498;2022-07-23T02:03:25;13.45;;;6.53;;
45136;SDS011;30894;51.740;19.498;2022-07-23T02:05:51;10.18;;;5.95;;
45136;SDS011;30894;51.740;19.498;2022-07-23T02:08:17;10.48;;;5.18;;
45136;SDS011;30894;51.740;19.498;2022-07-23T02:10:43;9.27;;;5.05;;
45136;SDS011;30894;51.740;19.498;2022-07-23T02:13:10;13.57;;;5.88;;
45136;SDS011;30894;51.740;19.498;2022-07-23T02:15:37;10.80;;;5.90;;
45136;SDS011;30894;51.740;19.498;2022-07-23T02:18:03;12.73;;;6.35;;
45136;SDS011;30894;51.740;19.498;2022-07-23T02:20:29;13.40;;;6.78;;
45136;SDS011;30894;51.740;19.498;2022-07-23T02:22:55;9.88;;;6.10;;
45136;SDS011;30894;51.740;19.498;2022-07-23T02:25:21;12.23;;;6.25;;
45136;SDS011;30894;51.740;19.498;2022-07-23T02:27:47;9.70;;;5.47;;
45136;SDS011;30894;51.740;19.498;2022-07-23T02:30:13;10.90;;;5.85;;
45136;SDS011;30894;51.740;19.498;2022-07-23T02:32:39;10.98;;;6.13;;
45136;SDS011;30894;51.740;19.498;2022-07-23T02:35:06;12.57;;;6.28;;
45136;SDS011;30894;51.740;19.498;2022-07-23T02:37:32;13.05;;;6.63;;
45136;SDS011;30894;51.740;19.498;2022-07-23T02:39:58;12.20;;;6.60;;
45136;SDS011;30894;51.740;19.498;2022-07-23T02:42:24;13.30;;;6.40;;
45136;SDS011;30894;51.740;19.498;2022-07-23T02:44:51;13.45;;;6.75;;
45136;SDS011;30894;51.740;19.498;2022-07-23T02:47:17;12.70;;;6.97;;
45136;SDS011;30894;51.740;19.498;2022-07-23T02:49:43;18.90;;;6.82;;
45136;SDS011;30894;51.740;19.498;2022-07-23T02:52:10;11.75;;;6.38;;
45136;SDS011;30894;51.740;19.498;2022-07-23T02:54:36;14.35;;;6.68;;
45136;SDS011;30894;51.740;19.498;2022-07-23T02:57:03;14.43;;;7.00;;
45136;SDS011;30894;51.740;19.498;2022-07-23T02:59:29;12.13;;;6.47;;
45136;SDS011;30894;51.740;19.498;2022-07-23T03:01:55;12.73;;;6.28;;
45136;SDS011;30894;51.740;19.498;2022-07-23T03:04:21;14.88;;;6.88;;
45136;SDS011;30894;51.740;19.498;2022-07-23T03:06:47;14.13;;;7.32;;
45136;SDS011;30894;51.740;19.498;2022-07-23T03:09:14;14.13;;;6.80;;
45136;SDS011;30894;51.740;19.498;2022-07-23T03:11:40;12.35;;;7.07;;
45136;SDS011;30894;51.740;19.498;2022-07-23T03:14:06;11.63;;;6.85;;
45136;SDS011;30894;51.740;19.498;2022-07-23T03:16:32;14.27;;;7.05;;
45136;SDS011;30894;51.740;19.498;2022-07-23T03:18:58;12.25;;;7.13;;
45136;SDS011;30894;51.740;19.498;2022-07-23T03:21:24;14.77;;;7.35;;
45136;SDS011;30894;51.740;19.498;2022-07-23T03:23:50;14.23;;;7.43;;
45136;SDS011;30894;51.740;19.498;2022-07-23T03:26:16;11.05;;;6.55;;
45136;SDS011;30894;51.740;19.498;2022-07-23T03:28:42;13.00;;;7.22;;
45136;SDS011;30894;51.740;19.498;2022-07-23T03:31:08;9.73;;;6.00;;
45136;SDS011;30894;51.740;19.498;2022-07-23T03:33:34;14.85;;;7.10;;
45136;SDS011;30894;51.740;19.498;2022-07-23T03:36:00;15.23;;;7.07;;
45136;SDS011;30894;51.740;19.498;2022-07-23T03:38:26;17.00;;;7.13;;
45136;SDS011;30894;51.740;19.498;2022-07-23T03:40:52;17.83;;;7.13;;
45136;SDS011;30894;51.740;19.498;2022-07-23T03:43:18;14.48;;;6.90;;
45136;SDS011;30894;51.740;19.498;2022-07-23T03:45:44;13.45;;;6.93;;
45136;SDS011;30894;51.740;19.498;2022-07-23T03:48:10;15.68;;;6.70;;
45136;SDS011;30894;51.740;19.498;2022-07-23T03:50:36;11.60;;;6.95;;
45136;SDS011;30894;51.740;19.498;2022-07-23T03:53:02;15.30;;;7.45;;
45136;SDS011;30894;51.740;19.498;2022-07-23T03:55:28;16.30;;;7.15;;
45136;SDS011;30894;51.740;19.498;2022-07-23T03:57:54;16.02;;;6.97;;
45136;SDS011;30894;51.740;19.498;2022-07-23T04:00:20;13.25;;;6.50;;
45136;SDS011;30894;51.740;19.498;2022-07-23T04:02:46;14.35;;;6.43;;
45136;SDS011;30894;51.740;19.498;2022-07-23T04:05:12;16.65;;;7.10;;
45136;SDS011;30894;51.740;19.498;2022-07-23T04:07:38;16.17;;;7.93;;
45136;SDS011;30894;51.740;19.498;2022-07-23T04:10:05;17.70;;;6.90;;
45136;SDS011;30894;51.740;19.498;2022-07-23T04:12:32;16.52;;;6.90;;
45136;SDS011;30894;51.740;19.498;2022-07-23T04:14:58;12.90;;;7.15;;
45136;SDS011;30894;51.740;19.498;2022-07-23T04:17:24;11.65;;;7.05;;
45136;SDS011;30894;51.740;19.498;2022-07-23T04:19:50;18.25;;;8.05;;
45136;SDS011;30894;51.740;19.498;2022-07-23T04:22:16;18.92;;;8.02;;
45136;SDS011;30894;51.740;19.498;2022-07-23T04:24:42;13.48;;;7.20;;
45136;SDS011;30894;51.740;19.498;2022-07-23T04:27:08;17.35;;;7.35;;
45136;SDS011;30894;51.740;19.498;2022-07-23T04:29:34;17.73;;;7.18;;
45136;SDS011;30894;51.740;19.498;2022-07-23T04:32:00;18.38;;;6.70;;
45136;SDS011;30894;51.740;19.498;2022-07-23T04:34:27;14.73;;;6.85;;
45136;SDS011;30894;51.740;19.498;2022-07-23T04:36:53;12.57;;;6.70;;
45136;SDS011;30894;51.740;19.498;2022-07-23T04:39:19;14.95;;;7.88;;
45136;SDS011;30894;51.740;19.498;2022-07-23T04:41:46;18.50;;;6.68;;
45136;SDS011;30894;51.740;19.498;2022-07-23T04:44:12;17.63;;;7.75;;
45136;SDS011;30894;51.740;19.498;2022-07-23T04:46:38;15.20;;;7.65;;
45136;SDS011;30894;51.740;19.498;2022-07-23T04:49:04;15.63;;;7.13;;
45136;SDS011;30894;51.740;19.498;2022-07-23T04:51:30;13.32;;;7.30;;
45136;SDS011;30894;51.740;19.498;2022-07-23T04:53:56;29.02;;;8.30;;
45136;SDS011;30894;51.740;19.498;2022-07-23T04:56:22;16.40;;;6.97;;
45136;SDS011;30894;51.740;19.498;2022-07-23T04:58:48;13.75;;;6.72;;
45136;SDS011;30894;51.740;19.498;2022-07-23T05:01:13;12.48;;;6.50;;
45136;SDS011;30894;51.740;19.498;2022-07-23T05:03:40;12.55;;;6.93;;
45136;SDS011;30894;51.740;19.498;2022-07-23T05:06:06;15.07;;;7.07;;
45136;SDS011;30894;51.740;19.498;2022-07-23T05:08:31;10.82;;;6.80;;
45136;SDS011;30894;51.740;19.498;2022-07-23T05:10:57;13.07;;;6.78;;
45136;SDS011;30894;51.740;19.498;2022-07-23T05:13:23;12.55;;;6.97;;
45136;SDS011;30894;51.740;19.498;2022-07-23T05:15:49;10.63;;;6.05;;
45136;SDS011;30894;51.740;19.498;2022-07-23T05:18:16;11.68;;;6.20;;
45136;SDS011;30894;51.740;19.498;2022-07-23T05:20:41;8.13;;;5.50;;
45136;SDS011;30894;51.740;19.498;2022-07-23T05:23:07;10.93;;;6.32;;
45136;SDS011;30894;51.740;19.498;2022-07-23T05:25:34;8.52;;;5.50;;
45136;SDS011;30894;51.740;19.498;2022-07-23T05:28:00;9.40;;;5.68;;
45136;SDS011;30894;51.740;19.498;2022-07-23T05:30:26;9.75;;;6.30;;
45136;SDS011;30894;51.740;19.498;2022-07-23T05:32:52;11.25;;;6.22;;
45136;SDS011;30894;51.740;19.498;2022-07-23T05:35:18;10.25;;;5.47;;
45136;SDS011;30894;51.740;19.498;2022-07-23T05:37:44;10.50;;;6.18;;
45136;SDS011;30894;51.740;19.498;2022-07-23T05:40:10;9.05;;;5.85;;
45136;SDS011;30894;51.740;19.498;2022-07-23T05:42:37;11.18;;;5.55;;
45136;SDS011;30894;51.740;19.498;2022-07-23T05:45:05;8.73;;;5.65;;
45136;SDS011;30894;51.740;19.498;2022-07-23T05:47:45;8.85;;;5.18;;
45136;SDS011;30894;51.740;19.498;2022-07-23T05:50:14;8.88;;;5.30;;
45136;SDS011;30894;51.740;19.498;2022-07-23T05:52:43;8.73;;;5.00;;
45136;SDS011;30894;51.740;19.498;2022-07-23T05:55:09;7.30;;;4.40;;
45136;SDS011;30894;51.740;19.498;2022-07-23T05:57:37;9.27;;;4.93;;
45136;SDS011;30894;51.740;19.498;2022-07-23T06:00:04;9.63;;;4.47;;
45136;SDS011;30894;51.740;19.498;2022-07-23T06:02:31;7.63;;;4.60;;
45136;SDS011;30894;51.740;19.498;2022-07-23T06:04:57;10.88;;;4.90;;
45136;SDS011;30894;51.740;19.498;2022-07-23T06:07:23;8.70;;;4.88;;
45136;SDS011;30894;51.740;19.498;2022-07-23T06:09:49;6.90;;;4.47;;
45136;SDS011;30894;51.740;19.498;2022-07-23T06:12:15;8.10;;;4.45;;
45136;SDS011;30894;51.740;19.498;2022-07-23T06:14:42;5.85;;;3.90;;
45136;SDS011;30894;51.740;19.498;2022-07-23T06:17:09;9.57;;;4.70;;
45136;SDS011;30894;51.740;19.498;2022-07-23T06:19:35;10.82;;;4.80;;
45136;SDS011;30894;51.740;19.498;2022-07-23T06:22:01;8.10;;;4.35;;
45136;SDS011;30894;51.740;19.498;2022-07-23T06:24:27;7.75;;;4.00;;
45136;SDS011;30894;51.740;19.498;2022-07-23T06:26:53;10.65;;;4.40;;
45136;SDS011;30894;51.740;19.498;2022-07-23T06:29:19;5.15;;;3.58;;
45136;SDS011;30894;51.740;19.498;2022-07-23T06:31:45;5.43;;;4.05;;
45136;SDS011;30894;51.740;19.498;2022-07-23T06:34:11;8.68;;;4.10;;
45136;SDS011;30894;51.740;19.498;2022-07-23T06:36:37;7.65;;;4.57;;
45136;SDS011;30894;51.740;19.498;2022-07-23T06:39:03;6.10;;;4.30;;
45136;SDS011;30894;51.740;19.498;2022-07-23T06:41:29;10.07;;;4.60;;
45136;SDS011;30894;51.740;19.498;2022-07-23T06:43:55;7.32;;;4.20;;
45136;SDS011;30894;51.740;19.498;2022-07-23T06:46:21;6.60;;;3.95;;
45136;SDS011;30894;51.740;19.498;2022-07-23T06:48:47;4.70;;;4.18;;
45136;SDS011;30894;51.740;19.498;2022-07-23T06:51:13;6.93;;;4.00;;
45136;SDS011;30894;51.740;19.498;2022-07-23T06:53:39;4.45;;;3.70;;
45136;SDS011;30894;51.740;19.498;2022-07-23T06:56:06;7.43;;;3.95;;
45136;SDS011;30894;51.740;19.498;2022-07-23T06:58:32;5.43;;;3.70;;
45136;SDS011;30894;51.740;19.498;2022-07-23T07:00:58;4.20;;;3.47;;
45136;SDS011;30894;51.740;19.498;2022-07-23T07:03:24;5.43;;;3.78;;
45136;SDS011;30894;51.740;19.498;2022-07-23T07:05:50;7.78;;;4.30;;
45136;SDS011;30894;51.740;19.498;2022-07-23T07:08:17;5.25;;;3.80;;
45136;SDS011;30894;51.740;19.498;2022-07-23T07:10:43;6.80;;;4.45;;
45136;SDS011;30894;51.740;19.498;2022-07-23T07:13:09;6.65;;;3.75;;
45136;SDS011;30894;51.740;19.498;2022-07-23T07:15:35;5.90;;;3.65;;
45136;SDS011;30894;51.740;19.498;2022-07-23T07:18:01;5.07;;;3.80;;
45136;SDS011;30894;51.740;19.498;2022-07-23T07:20:27;6.20;;;4.13;;
45136;SDS011;30894;51.740;19.498;2022-07-23T07:22:53;5.45;;;3.88;;
45136;SDS011;30894;51.740;19.498;2022-07-23T07:25:19;5.32;;;4.05;;
45136;SDS011;30894;51.740;19.498;2022-07-23T07:27:45;7.75;;;4.13;;
45136;SDS011;30894;51.740;19.498;2022-07-23T07:30:11;7.85;;;3.60;;
45136;SDS011;30894;51.740;19.498;2022-07-23T07:32:37;6.10;;;3.72;;
45136;SDS011;30894;51.740;19.498;2022-07-23T07:35:05;4.88;;;3.67;;
45136;SDS011;30894;51.740;19.498;2022-07-23T07:37:31;8.25;;;4.30;;
45136;SDS011;30894;51.740;19.498;2022-07-23T07:39:57;53.47;;;7.03;;
45136;SDS011;30894;51.740;19.498;2022-07-23T07:42:24;7.03;;;3.88;;
45136;SDS011;30894;51.740;19.498;2022-07-23T07:44:50;4.97;;;3.22;;
45136;SDS011;30894;51.740;19.498;2022-07-23T07:47:17;9.05;;;3.63;;
45136;SDS011;30894;51.740;19.498;2022-07-23T07:49:43;7.22;;;3.63;;
45136;SDS011;30894;51.740;19.498;2022-07-23T07:52:10;6.40;;;3.67;;
45136;SDS011;30894;51.740;19.498;2022-07-23T07:54:36;6.57;;;4.00;;
45136;SDS011;30894;51.740;19.498;2022-07-23T07:57:03;5.55;;;4.05;;
45136;SDS011;30894;51.740;19.498;2022-07-23T07:59:28;8.07;;;4.05;;
45136;SDS011;30894;51.740;19.498;2022-07-23T08:01:54;6.50;;;3.60;;
45136;SDS011;30894;51.740;19.498;2022-07-23T08:04:20;5.10;;;3.60;;
45136;SDS011;30894;51.740;19.498;2022-07-23T08:06:46;8.30;;;3.85;;
45136;SDS011;30894;51.740;19.498;2022-07-23T08:09:12;3.70;;;3.33;;
45136;SDS011;30894;51.740;19.498;2022-07-23T08:11:39;4.50;;;3.78;;
45136;SDS011;30894;51.740;19.498;2022-07-23T08:14:05;7.57;;;3.80;;
45136;SDS011;30894;51.740;19.498;2022-07-23T08:16:31;4.13;;;3.40;;
45136;SDS011;30894;51.740;19.498;2022-07-23T08:18:58;7.72;;;4.10;;
45136;SDS011;30894;51.740;19.498;2022-07-23T08:21:23;4.72;;;3.90;;
45136;SDS011;30894;51.740;19.498;2022-07-23T08:23:49;6.90;;;3.83;;
45136;SDS011;30894;51.740;19.498;2022-07-23T08:26:16;7.10;;;3.47;;
45136;SDS011;30894;51.740;19.498;2022-07-23T08:28:42;4.35;;;3.50;;
45136;SDS011;30894;51.740;19.498;2022-07-23T08:31:08;4.43;;;3.35;;
45136;SDS011;30894;51.740;19.498;2022-07-23T08:33:36;4.82;;;3.55;;
45136;SDS011;30894;51.740;19.498;2022-07-23T08:36:02;5.05;;;3.58;;
45136;SDS011;30894;51.740;19.498;2022-07-23T08:38:29;5.00;;;3.88;;
45136;SDS011;30894;51.740;19.498;2022-07-23T08:40:56;5.20;;;3.75;;
45136;SDS011;30894;51.740;19.498;2022-07-23T08:43:29;6.80;;;3.80;;
45136;SDS011;30894;51.740;19.498;2022-07-23T08:45:58;4.18;;;3.35;;
45136;SDS011;30894;51.740;19.498;2022-07-23T08:48:27;4.45;;;3.70;;
45136;SDS011;30894;51.740;19.498;2022-07-23T08:50:58;5.25;;;3.83;;
45136;SDS011;30894;51.740;19.498;2022-07-23T08:53:27;4.20;;;3.45;;
45136;SDS011;30894;51.740;19.498;2022-07-23T08:55:55;4.75;;;3.55;;
45136;SDS011;30894;51.740;19.498;2022-07-23T08:58:30;6.47;;;3.75;;
45136;SDS011;30894;51.740;19.498;2022-07-23T09:00:57;4.18;;;3.25;;
45136;SDS011;30894;51.740;19.498;2022-07-23T09:03:25;6.63;;;3.20;;
45136;SDS011;30894;51.740;19.498;2022-07-23T09:05:57;4.15;;;3.25;;
45136;SDS011;30894;51.740;19.498;2022-07-23T09:08:25;5.07;;;3.50;;
45136;SDS011;30894;51.740;19.498;2022-07-23T09:11:01;3.60;;;3.15;;
45136;SDS011;30894;51.740;19.498;2022-07-23T09:13:31;5.25;;;3.60;;
45136;SDS011;30894;51.740;19.498;2022-07-23T09:23:51;6.32;;;3.10;;
45136;SDS011;30894;51.740;19.498;2022-07-23T09:29:18;6.20;;;3.20;;
45136;SDS011;30894;51.740;19.498;2022-07-23T09:31:52;3.38;;;2.67;;
45136;SDS011;30894;51.740;19.498;2022-07-23T09:34:29;4.13;;;3.60;;
45136;SDS011;30894;51.740;19.498;2022-07-23T09:37:13;7.50;;;3.53;;
45136;SDS011;30894;51.740;19.498;2022-07-23T09:39:45;4.72;;;3.58;;
45136;SDS011;30894;51.740;19.498;2022-07-23T09:44:50;4.03;;;3.38;;
45136;SDS011;30894;51.740;19.498;2022-07-23T09:47:19;5.40;;;4.05;;
45136;SDS011;30894;51.740;19.498;2022-07-23T09:52:42;5.68;;;3.10;;
45136;SDS011;30894;51.740;19.498;2022-07-23T09:55:09;10.03;;;3.63;;
45136;SDS011;30894;51.740;19.498;2022-07-23T09:57:35;7.10;;;3.20;;
45136;SDS011;30894;51.740;19.498;2022-07-23T10:00:03;8.57;;;3.90;;
45136;SDS011;30894;51.740;19.498;2022-07-23T10:02:33;7.53;;;3.10;;
45136;SDS011;30894;51.740;19.498;2022-07-23T10:04:59;4.38;;;3.47;;
45136;SDS011;30894;51.740;19.498;2022-07-23T10:07:28;8.52;;;3.03;;
45136;SDS011;30894;51.740;19.498;2022-07-23T10:10:00;6.53;;;3.53;;
45136;SDS011;30894;51.740;19.498;2022-07-23T10:12:27;5.10;;;4.30;;
45136;SDS011;30894;51.740;19.498;2022-07-23T10:15:12;6.75;;;3.60;;
45136;SDS011;30894;51.740;19.498;2022-07-23T10:17:38;5.75;;;3.15;;
45136;SDS011;30894;51.740;19.498;2022-07-23T10:20:04;7.50;;;3.90;;
45136;SDS011;30894;51.740;19.498;2022-07-23T10:22:35;4.93;;;3.17;;
45136;SDS011;30894;51.740;19.498;2022-07-23T10:28:15;8.02;;;3.90;;
45136;SDS011;30894;51.740;19.498;2022-07-23T10:31:17;8.05;;;3.47;;
45136;SDS011;30894;51.740;19.498;2022-07-23T10:42:44;4.78;;;4.30;;
45136;SDS011;30894;51.740;19.498;2022-07-23T10:50:44;4.88;;;3.60;;
45136;SDS011;30894;51.740;19.498;2022-07-23T10:56:15;6.30;;;4.23;;
45136;SDS011;30894;51.740;19.498;2022-07-23T10:58:50;5.35;;;3.80;;
45136;SDS011;30894;51.740;19.498;2022-07-23T11:01:35;4.05;;;3.50;;
45136;SDS011;30894;51.740;19.498;2022-07-23T11:04:03;4.28;;;3.20;;
45136;SDS011;30894;51.740;19.498;2022-07-23T11:15:02;6.43;;;4.30;;
45136;SDS011;30894;51.740;19.498;2022-07-23T11:17:37;7.38;;;4.13;;
45136;SDS011;30894;51.740;19.498;2022-07-23T11:22:37;6.90;;;4.03;;
45136;SDS011;30894;51.740;19.498;2022-07-23T11:25:05;11.07;;;3.70;;
45136;SDS011;30894;51.740;19.498;2022-07-23T11:27:38;7.80;;;3.60;;
45136;SDS011;30894;51.740;19.498;2022-07-23T11:30:05;7.82;;;3.25;;
45136;SDS011;30894;51.740;19.498;2022-07-23T11:32:35;4.72;;;3.63;;
45136;SDS011;30894;51.740;19.498;2022-07-23T11:35:18;5.15;;;3.80;;
45136;SDS011;30894;51.740;19.498;2022-07-23T11:40:14;4.97;;;3.42;;
45136;SDS011;30894;51.740;19.498;2022-07-23T11:42:58;5.50;;;4.10;;
45136;SDS011;30894;51.740;19.498;2022-07-23T11:45:35;5.35;;;3.60;;
45136;SDS011;30894;51.740;19.498;2022-07-23T11:50:52;4.60;;;4.10;;
45136;SDS011;30894;51.740;19.498;2022-07-23T11:53:23;6.68;;;3.72;;
45136;SDS011;30894;51.740;19.498;2022-07-23T11:56:08;5.20;;;3.67;;
45136;SDS011;30894;51.740;19.498;2022-07-23T11:58:36;5.32;;;3.65;;
45136;SDS011;30894;51.740;19.498;2022-07-23T12:01:03;4.47;;;3.38;;
45136;SDS011;30894;51.740;19.498;2022-07-23T12:03:30;7.20;;;3.92;;
45136;SDS011;30894;51.740;19.498;2022-07-23T12:05:57;5.68;;;4.03;;
45136;SDS011;30894;51.740;19.498;2022-07-23T12:08:25;4.28;;;3.70;;
45136;SDS011;30894;51.740;19.498;2022-07-23T12:10:51;8.48;;;4.10;;
45136;SDS011;30894;51.740;19.498;2022-07-23T12:13:18;5.32;;;4.05;;
45136;SDS011;30894;51.740;19.498;2022-07-23T12:15:57;7.93;;;4.03;;
45136;SDS011;30894;51.740;19.498;2022-07-23T12:18:24;7.15;;;3.83;;
45136;SDS011;30894;51.740;19.498;2022-07-23T12:20:52;8.10;;;4.93;;
45136;SDS011;30894;51.740;19.498;2022-07-23T12:23:23;6.38;;;3.85;;
45136;SDS011;30894;51.740;19.498;2022-07-23T12:25:51;8.48;;;3.85;;
45136;SDS011;30894;51.740;19.498;2022-07-23T12:28:19;4.88;;;4.38;;
45136;SDS011;30894;51.740;19.498;2022-07-23T12:30:58;6.03;;;4.47;;
45136;SDS011;30894;51.740;19.498;2022-07-23T12:33:29;5.82;;;4.20;;
45136;SDS011;30894;51.740;19.498;2022-07-23T12:36:06;5.00;;;3.50;;
45136;SDS011;30894;51.740;19.498;2022-07-23T12:38:37;7.78;;;3.83;;
45136;SDS011;30894;51.740;19.498;2022-07-23T12:41:09;6.78;;;4.20;;
45136;SDS011;30894;51.740;19.498;2022-07-23T12:43:36;8.00;;;4.75;;
45136;SDS011;30894;51.740;19.498;2022-07-23T12:46:07;6.18;;;4.13;;
45136;SDS011;30894;51.740;19.498;2022-07-23T12:48:49;7.53;;;4.03;;
45136;SDS011;30894;51.740;19.498;2022-07-23T12:51:22;6.35;;;4.15;;
45136;SDS011;30894;51.740;19.498;2022-07-23T12:53:55;9.20;;;4.15;;
45136;SDS011;30894;51.740;19.498;2022-07-23T12:56:34;17.90;;;3.70;;
45136;SDS011;30894;51.740;19.498;2022-07-23T12:59:09;12.80;;;3.10;;
45136;SDS011;30894;51.740;19.498;2022-07-23T13:01:41;7.75;;;2.83;;
45136;SDS011;30894;51.740;19.498;2022-07-23T13:04:32;8.80;;;2.75;;
45136;SDS011;30894;51.740;19.498;2022-07-23T13:06:59;14.23;;;2.72;;
45136;SDS011;30894;51.740;19.498;2022-07-23T13:09:29;4.88;;;2.20;;
45136;SDS011;30894;51.740;19.498;2022-07-23T13:11:57;5.50;;;2.42;;
45136;SDS011;30894;51.740;19.498;2022-07-23T13:14:24;3.72;;;2.53;;
45136;SDS011;30894;51.740;19.498;2022-07-23T13:16:51;6.72;;;2.72;;
45136;SDS011;30894;51.740;19.498;2022-07-23T13:19:19;6.22;;;3.08;;
45136;SDS011;30894;51.740;19.498;2022-07-23T13:21:48;4.85;;;2.58;;
45136;SDS011;30894;51.740;19.498;2022-07-23T13:24:14;5.50;;;2.83;;
45136;SDS011;30894;51.740;19.498;2022-07-23T13:26:41;7.63;;;3.50;;
45136;SDS011;30894;51.740;19.498;2022-07-23T13:29:08;6.60;;;3.53;;
45136;SDS011;30894;51.740;19.498;2022-07-23T13:31:35;7.95;;;4.00;;
45136;SDS011;30894;51.740;19.498;2022-07-23T13:34:02;8.30;;;2.70;;
45136;SDS011;30894;51.740;19.498;2022-07-23T13:36:28;5.55;;;2.55;;
45136;SDS011;30894;51.740;19.498;2022-07-23T13:38:55;4.20;;;2.67;;
45136;SDS011;30894;51.740;19.498;2022-07-23T13:41:21;2.78;;;1.90;;
45136;SDS011;30894;51.740;19.498;2022-07-23T13:43:47;3.10;;;1.65;;
45136;SDS011;30894;51.740;19.498;2022-07-23T13:46:14;0.60;;;0.40;;
45136;SDS011;30894;51.740;19.498;2022-07-23T13:48:40;2.15;;;0.95;;
45136;SDS011;30894;51.740;19.498;2022-07-23T13:51:07;0.93;;;0.68;;
45136;SDS011;30894;51.740;19.498;2022-07-23T13:53:33;0.30;;;0.30;;
45136;SDS011;30894;51.740;19.498;2022-07-23T13:55:59;0.57;;;0.52;;
45136;SDS011;30894;51.740;19.498;2022-07-23T13:58:25;2.10;;;0.68;;
45136;SDS011;30894;51.740;19.498;2022-07-23T14:00:52;1.05;;;0.88;;
45136;SDS011;30894;51.740;19.498;2022-07-23T14:03:19;3.35;;;0.88;;
45136;SDS011;30894;51.740;19.498;2022-07-23T14:05:50;1.48;;;1.38;;
45136;SDS011;30894;51.740;19.498;2022-07-23T14:08:18;1.45;;;1.15;;
45136;SDS011;30894;51.740;19.498;2022-07-23T14:10:44;4.63;;;1.67;;
45136;SDS011;30894;51.740;19.498;2022-07-23T14:13:10;2.67;;;1.13;;
45136;SDS011;30894;51.740;19.498;2022-07-23T14:15:36;1.90;;;1.17;;
45136;SDS011;30894;51.740;19.498;2022-07-23T14:18:05;2.03;;;1.40;;
45136;SDS011;30894;51.740;19.498;2022-07-23T14:20:32;4.63;;;2.08;;
45136;SDS011;30894;51.740;19.498;2022-07-23T14:22:58;1.42;;;0.93;;
45136;SDS011;30894;51.740;19.498;2022-07-23T14:25:25;2.25;;;1.55;;
45136;SDS011;30894;51.740;19.498;2022-07-23T14:27:52;3.38;;;1.65;;
45136;SDS011;30894;51.740;19.498;2022-07-23T14:30:18;7.13;;;1.90;;
45136;SDS011;30894;51.740;19.498;2022-07-23T14:32:44;7.35;;;1.48;;
45136;SDS011;30894;51.740;19.498;2022-07-23T14:35:11;2.20;;;1.35;;
45136;SDS011;30894;51.740;19.498;2022-07-23T14:37:38;2.00;;;1.38;;
45136;SDS011;30894;51.740;19.498;2022-07-23T14:40:05;1.45;;;1.05;;
45136;SDS011;30894;51.740;19.498;2022-07-23T14:42:31;0.47;;;0.30;;
45136;SDS011;30894;51.740;19.498;2022-07-23T14:44:58;0.30;;;0.30;;
45136;SDS011;30894;51.740;19.498;2022-07-23T14:47:23;0.30;;;0.30;;
45136;SDS011;30894;51.740;19.498;2022-07-23T14:49:49;0.50;;;0.30;;
45136;SDS011;30894;51.740;19.498;2022-07-23T14:52:15;0.10;;;0.10;;
45136;SDS011;30894;51.740;19.498;2022-07-23T14:54:41;0.30;;;0.30;;
45136;SDS011;30894;51.740;19.498;2022-07-23T14:57:10;0.50;;;0.50;;
45136;SDS011;30894;51.740;19.498;2022-07-23T14:59:36;0.80;;;0.35;;
45136;SDS011;30894;51.740;19.498;2022-07-23T15:02:02;0.00;;;0.00;;
45136;SDS011;30894;51.740;19.498;2022-07-23T15:04:28;0.10;;;0.10;;
45136;SDS011;30894;51.740;19.498;2022-07-23T15:06:54;0.10;;;0.10;;
45136;SDS011;30894;51.740;19.498;2022-07-23T15:09:20;0.00;;;0.00;;
45136;SDS011;30894;51.740;19.498;2022-07-23T15:11:46;0.10;;;0.10;;
45136;SDS011;30894;51.740;19.498;2022-07-23T15:14:12;0.10;;;0.10;;
45136;SDS011;30894;51.740;19.498;2022-07-23T15:16:39;0.10;;;0.10;;
45136;SDS011;30894;51.740;19.498;2022-07-23T15:19:05;0.00;;;0.00;;
45136;SDS011;30894;51.740;19.498;2022-07-23T15:21:31;0.10;;;0.10;;
45136;SDS011;30894;51.740;19.498;2022-07-23T15:23:57;0.10;;;0.10;;
45136;SDS011;30894;51.740;19.498;2022-07-23T15:26:25;0.10;;;0.10;;